Port Royal, VA (22535)

7:09 PM EDT on September 23, 2014 (GMT -0400)
RAWS FAPH_EODTC VA US | Change Station
CLOSE
Current Station
Personal Weather Station
Location: Port Royal, VA
Elevation: 80 ft
Nearby Weather Stations

Elev 80 ft 38.13 °N, 77.18 °W | Updated 37 minutes ago

Partly Cloudy
Partly Cloudy
64 °F
Feels Like 64 °F
N
2
Wind Variable Wind from SSE
Gusts 7.0 mph

Today
High -- | Low -- °F
--% Chance of Precip.
Yesterday
High -- | Low -- °F
Precip. -- in
6:57 AM 7:04 PM
Waning Crescent, 0% visible
Pressure 30.32 in
Visibility 10.0 miles
Clouds Clear
Dew Point 49 °F
Humidity 58%
Rainfall 0.00 in
Snow Depth Not available.
UV 0 out of 12
Pollen 4.60 out of 12
Air Quality Not available.
Flu Activity Not available.
METAR KEZF 232255Z AUTO 00000KT 10SM CLR 19/09 A3032 RMK AO2 T01900085

More Conditions Fewer Conditions

Pressure 30.32 in
Visibility 10.0 miles
Clouds Clear
Dew Point 49 °F
Humidity 58%
Rainfall 0.00 in
Snow Depth Not available.
UV 0 out of 12
Pollen 4.60 out of 12
Air Quality Not available.
Flu Activity Not available.
METAR KEZF 232255Z AUTO 00000KT 10SM CLR 19/09 A3032 RMK AO2 T01900085

More Conditions Fewer Conditions

10-Day Weather Forecast

Almanac

Astronomy

Sep. 23, 2014 Rise Set
Actual Time 6:57 AM EDT 7:04 PM EDT
Civil Twilight 6:31 AM EDT 7:30 PM EDT
Nautical Twilight 6:00 AM EDT 8:01 PM EDT
Astronomical Twilight 5:29 AM EDT 8:32 PM EDT
Moon 6:19 AM EDT 6:42 PM EDT
Length of Visible Light 12h 59m
Length of Day
12h 06m
Tomorrow will be 2m 26s shorter.
Waning Crescent, 0% of the Moon is Illuminated
Today
Waning Crescent
Sep 24
New
Oct 1
First Quarter
Oct 8
Full
Oct 15
Last Quarter

Today's Extremes

State Highs State Lows

Community

WunderPhotos

Upload Photos

1,755,824 photos uploaded!

WunderBlogs® & News

Nearby

Snow Depth

Station Depth Elevation
No new snow has been reported.

Earthquake Activity

City Distance Mag. Time & Date
No recent earthquake activity has been reported nearby.
Minimum magnitude displayed is 2.5.

Coastal Water Temperatures

Place Temperature
Washington, DC 72.0 °F
Lewisetta, VA 70.0 °F
Solomons Island, MD 73.9 °F

Nearby Weather Stations